createdAt,value
2017-01-09T05:43:34.020Z,0
2017-01-09T05:44:53.765Z,0
2017-01-09T05:46:10.477Z,0
2017-01-09T05:47:32.590Z,0
2017-01-09T05:48:55.022Z,0
2017-01-09T05:50:17.604Z,0
2017-01-09T05:51:35.656Z,0
2017-01-09T05:52:55.235Z,0
2017-01-09T05:54:08.761Z,0
2017-01-09T05:55:22.207Z,0
2017-01-09T05:56:35.641Z,0
2017-01-09T05:57:49.071Z,0
2017-01-09T05:59:02.950Z,0
2017-01-09T06:00:16.355Z,0
2017-01-09T06:01:29.821Z,0
2017-01-09T06:02:43.248Z,0
2017-01-09T06:03:56.669Z,0
2017-01-09T06:05:10.151Z,0
2017-01-09T06:06:23.599Z,0
2017-01-09T06:07:37.046Z,0
2017-01-09T06:08:50.503Z,0
2017-01-09T06:10:04.021Z,0
2017-01-09T06:11:17.497Z,0
2017-01-09T06:12:31.026Z,0
2017-01-09T06:13:44.529Z,0
2017-01-09T06:14:58.481Z,0
2017-01-09T06:16:11.918Z,0
2017-01-09T06:17:25.398Z,0
2017-01-09T06:18:38.872Z,0
2017-01-09T06:19:52.605Z,0
2017-01-09T06:21:06.266Z,0
2017-01-09T06:22:19.821Z,0
2017-01-09T06:23:46.011Z,0
2017-01-09T06:24:59.543Z,0
2017-01-09T06:26:12.986Z,0
2017-01-09T06:27:26.432Z,0
2017-01-09T06:28:39.854Z,0
2017-01-09T06:29:53.688Z,0
2017-01-09T06:31:07.179Z,0
2017-01-09T06:32:20.661Z,0
2017-01-09T06:33:34.086Z,0
2017-01-09T06:34:47.656Z,0
2017-01-09T06:36:01.122Z,0
2017-01-09T06:37:14.564Z,0
2017-01-09T06:38:28.395Z,0
2017-01-09T06:39:41.846Z,0
2017-01-09T06:40:55.403Z,0
2017-01-09T06:42:08.849Z,0
2017-01-09T06:43:22.691Z,0
2017-01-09T06:44:36.157Z,0
2017-01-09T06:45:49.641Z,0
2017-01-09T06:47:03.174Z,0
2017-01-09T06:48:16.618Z,0
2017-01-09T06:49:30.048Z,0
2017-01-09T06:50:43.498Z,0
2017-01-09T06:51:57.013Z,0
2017-01-09T06:53:10.513Z,0
2017-01-09T06:54:23.989Z,0
2017-01-09T06:55:38.065Z,0
2017-01-09T06:56:52.140Z,0
2017-01-09T06:58:05.637Z,0
2017-01-09T06:59:19.229Z,0
2017-01-09T07:00:32.660Z,0
2017-01-09T07:01:46.163Z,0
2017-01-09T07:03:00.145Z,0
2017-01-09T07:04:14.054Z,0
2017-01-09T07:05:28.169Z,0
2017-01-09T07:06:41.551Z,0
2017-01-09T07:07:55.113Z,0
2017-01-09T07:09:10.762Z,0
2017-01-09T07:10:24.673Z,0
2017-01-09T07:11:38.226Z,0
2017-01-09T07:12:51.695Z,0
2017-01-09T07:14:05.322Z,0
2017-01-09T07:15:19.015Z,0
2017-01-09T07:16:32.613Z,0
2017-01-09T07:17:46.114Z,0
2017-01-09T07:18:59.560Z,0
2017-01-09T07:20:13.137Z,0
2017-01-09T07:21:26.570Z,0
2017-01-09T07:22:40.034Z,0
2017-01-09T07:23:53.942Z,0
2017-01-09T07:25:07.383Z,0
2017-01-09T07:26:20.829Z,0
2017-01-09T07:27:34.324Z,0
2017-01-09T07:28:48.148Z,0
2017-01-09T07:30:01.572Z,0
2017-01-09T07:31:15.005Z,0
2017-01-09T07:32:28.588Z,0
2017-01-09T07:33:42.067Z,0
2017-01-09T07:34:55.570Z,0
2017-01-09T07:36:09.054Z,0
2017-01-09T07:37:22.524Z,0
2017-01-09T07:38:37.239Z,0
2017-01-09T07:39:50.732Z,0
2017-01-09T07:41:04.198Z,5
2017-01-09T07:42:18.049Z,5
2017-01-09T07:43:31.619Z,5
2017-01-09T07:44:45.063Z,5
2017-01-09T07:45:58.530Z,5
2017-01-09T07:47:11.959Z,5
2017-01-09T07:48:25.881Z,5
2017-01-09T07:49:39.333Z,5
2017-01-09T07:50:53.225Z,5
2017-01-09T07:52:06.647Z,5
2017-01-09T07:53:20.233Z,5
2017-01-09T07:54:33.767Z,5
2017-01-09T07:55:47.453Z,5
2017-01-09T07:57:00.895Z,5
2017-01-09T07:58:14.356Z,5
2017-01-09T07:59:28.008Z,5
2017-01-09T08:00:41.437Z,5
2017-01-09T08:01:54.841Z,5
2017-01-09T08:03:08.312Z,5
2017-01-09T08:04:23.006Z,5
2017-01-09T08:05:36.527Z,5
2017-01-09T08:06:49.960Z,10
2017-01-09T08:08:03.405Z,10
2017-01-09T08:09:16.846Z,10
2017-01-09T08:10:30.762Z,10
2017-01-09T08:11:44.200Z,10
2017-01-09T08:12:57.667Z,10
2017-01-09T08:14:11.179Z,10
2017-01-09T08:15:24.693Z,10
2017-01-09T08:16:38.647Z,10
2017-01-09T08:17:52.528Z,10
2017-01-09T08:19:06.583Z,10
2017-01-09T08:20:21.278Z,10
2017-01-09T08:21:35.182Z,15
2017-01-09T08:22:48.627Z,15
2017-01-09T08:24:02.116Z,10
2017-01-09T08:25:19.020Z,15
2017-01-09T08:26:32.903Z,15
2017-01-09T08:27:46.347Z,15
2017-01-09T08:29:00.213Z,15
2017-01-09T08:30:14.098Z,15
2017-01-09T08:31:28.051Z,15
2017-01-09T08:32:41.545Z,15
2017-01-09T08:33:55.037Z,20
2017-01-09T08:35:08.527Z,20
2017-01-09T08:36:22.057Z,15
2017-01-09T08:37:35.913Z,20
2017-01-09T08:38:49.381Z,20
2017-01-09T08:40:02.843Z,20
2017-01-09T08:41:16.368Z,20
2017-01-09T08:42:29.802Z,20
2017-01-09T08:43:43.263Z,15
2017-01-09T08:44:56.963Z,15
2017-01-09T08:46:10.395Z,20
2017-01-09T08:47:23.995Z,25
2017-01-09T08:48:37.542Z,25
2017-01-09T08:49:51.093Z,20
2017-01-09T08:51:04.656Z,20
2017-01-09T08:52:18.227Z,20
2017-01-09T08:53:32.179Z,25
2017-01-09T08:54:45.651Z,30
2017-01-09T08:55:59.208Z,25
2017-01-09T08:57:12.969Z,25
2017-01-09T08:58:26.576Z,20
2017-01-09T08:59:40.087Z,25
2017-01-09T09:00:53.605Z,20
2017-01-09T09:02:07.043Z,20
2017-01-09T09:03:20.705Z,25
2017-01-09T09:04:34.321Z,25
2017-01-09T09:05:47.800Z,25
2017-01-09T09:07:01.201Z,30
2017-01-09T09:08:15.139Z,30
2017-01-09T09:09:28.662Z,35
2017-01-09T09:10:42.104Z,35
2017-01-09T09:11:55.563Z,35
2017-01-09T09:13:10.297Z,35
2017-01-09T09:14:23.867Z,40
2017-01-09T09:15:37.637Z,40
2017-01-09T09:16:51.105Z,35
2017-01-09T09:18:04.670Z,35
2017-01-09T09:19:18.328Z,35
2017-01-09T09:20:31.871Z,35
2017-01-09T09:21:45.373Z,35
2017-01-09T09:22:58.839Z,40
2017-01-09T09:24:12.375Z,40
2017-01-09T09:25:25.826Z,40
2017-01-09T09:26:39.280Z,40
2017-01-09T09:27:52.838Z,40
2017-01-09T09:29:06.438Z,35
2017-01-09T09:30:20.256Z,40
2017-01-09T09:31:34.204Z,40
2017-01-09T09:32:47.789Z,40
2017-01-09T09:34:01.482Z,40
2017-01-09T09:35:15.007Z,45
2017-01-09T09:36:28.787Z,40
2017-01-09T09:37:42.349Z,40
2017-01-09T09:38:55.833Z,40
2017-01-09T09:40:09.296Z,40
2017-01-09T09:41:25.325Z,40
2017-01-09T09:42:39.003Z,40
2017-01-09T09:43:52.452Z,45
2017-01-09T09:45:06.038Z,45
2017-01-09T09:46:19.523Z,45
2017-01-09T09:47:32.980Z,45
2017-01-09T09:48:46.408Z,45
2017-01-09T09:50:01.198Z,45
2017-01-09T09:51:14.711Z,50
2017-01-09T09:52:28.311Z,50
2017-01-09T09:53:42.525Z,55
2017-01-09T09:54:55.965Z,45
2017-01-09T09:56:10.872Z,40
2017-01-09T09:57:24.342Z,45
2017-01-09T09:58:37.798Z,50
2017-01-09T09:59:51.673Z,55
2017-01-09T10:01:06.873Z,50
2017-01-09T10:02:20.406Z,45
2017-01-09T10:03:33.921Z,45
2017-01-09T10:04:47.408Z,45
2017-01-09T10:06:00.947Z,45
2017-01-09T10:07:14.446Z,45
2017-01-09T10:08:27.962Z,50
2017-01-09T10:09:41.587Z,50
2017-01-09T10:10:55.140Z,50
2017-01-09T10:12:09.194Z,55
2017-01-09T10:13:23.265Z,45
2017-01-09T10:14:36.749Z,45
2017-01-09T10:15:50.280Z,45
2017-01-09T10:17:03.612Z,45
2017-01-09T10:18:17.119Z,45
2017-01-09T10:19:30.773Z,55
2017-01-09T10:20:45.059Z,50
2017-01-09T10:21:58.929Z,50
2017-01-09T10:23:13.030Z,50
2017-01-09T10:24:26.530Z,55
2017-01-09T10:25:40.034Z,55
2017-01-09T10:26:53.578Z,60
2017-01-09T10:28:09.030Z,65
2017-01-09T10:29:22.696Z,70
2017-01-09T10:30:36.178Z,70
2017-01-09T10:31:50.128Z,65
2017-01-09T10:33:03.768Z,60
2017-01-09T10:34:17.926Z,55
2017-01-09T10:35:31.461Z,60
2017-01-09T10:36:45.026Z,60
2017-01-09T10:37:58.514Z,60
2017-01-09T10:39:13.374Z,60
2017-01-09T10:40:27.418Z,55
2017-01-09T10:41:40.955Z,60
2017-01-09T10:42:54.472Z,60
2017-01-09T10:44:08.529Z,60
2017-01-09T10:45:23.046Z,60
2017-01-09T10:46:36.772Z,55
2017-01-09T10:47:50.817Z,65
2017-01-09T10:49:19.465Z,55
2017-01-09T10:50:33.126Z,60
2017-01-09T10:51:46.648Z,60
2017-01-09T10:53:00.234Z,65
2017-01-09T10:54:13.984Z,65
2017-01-09T10:55:28.276Z,65
2017-01-09T10:56:42.189Z,65
2017-01-09T10:57:57.880Z,65
2017-01-09T10:59:11.500Z,65
2017-01-09T11:00:26.270Z,65
2017-01-09T11:01:40.209Z,70
2017-01-09T11:02:53.703Z,70
2017-01-09T11:04:07.609Z,75
2017-01-09T11:05:22.740Z,75
2017-01-09T11:06:36.695Z,80
2017-01-09T11:07:50.223Z,90
2017-01-09T11:09:03.771Z,95
2017-01-09T11:10:18.594Z,95
2017-01-09T11:11:32.187Z,90
2017-01-09T11:12:45.759Z,80
2017-01-09T11:13:59.272Z,75
2017-01-09T11:15:12.799Z,65
2017-01-09T11:16:26.172Z,65
2017-01-09T11:17:39.708Z,70
2017-01-09T11:18:53.171Z,75
2017-01-09T11:20:06.643Z,80
2017-01-09T11:21:20.240Z,75
2017-01-09T11:22:33.750Z,70
2017-01-09T11:23:47.230Z,70
2017-01-09T11:25:00.707Z,70
2017-01-09T11:26:14.190Z,80
2017-01-09T11:27:28.975Z,80
2017-01-09T11:28:42.506Z,75
2017-01-09T11:29:55.985Z,65
2017-01-09T11:31:09.543Z,65
2017-01-09T11:32:24.291Z,65
2017-01-09T11:33:37.797Z,65
2017-01-09T11:34:51.331Z,70
2017-01-09T11:36:04.822Z,60
2017-01-09T11:37:18.362Z,60
2017-01-09T11:38:31.892Z,65
2017-01-09T11:39:45.397Z,70
2017-01-09T11:40:58.865Z,70
2017-01-09T11:42:12.367Z,70
2017-01-09T11:43:26.881Z,65
2017-01-09T11:44:40.368Z,60
2017-01-09T11:45:53.831Z,60
2017-01-09T11:47:07.654Z,60
2017-01-09T11:48:21.167Z,65
2017-01-09T11:49:34.665Z,65
2017-01-09T11:50:48.308Z,60
2017-01-09T11:52:02.340Z,55
2017-01-09T11:53:15.849Z,60
2017-01-09T11:54:29.296Z,60
2017-01-09T11:55:43.170Z,60
2017-01-09T11:56:57.051Z,60
2017-01-09T11:58:10.505Z,60
2017-01-09T11:59:24.110Z,55
2017-01-09T12:00:37.538Z,55
2017-01-09T12:01:50.979Z,60
2017-01-09T12:03:04.432Z,55
2017-01-09T12:04:19.181Z,60
2017-01-09T12:05:32.708Z,65
2017-01-09T12:06:46.193Z,60
2017-01-09T12:07:59.696Z,60
2017-01-09T12:09:13.360Z,60
2017-01-09T12:10:27.408Z,55
2017-01-09T12:11:41.021Z,60
2017-01-09T12:12:54.511Z,60
2017-01-09T12:14:10.207Z,55
2017-01-09T12:15:24.294Z,60
2017-01-09T12:16:38.180Z,55
2017-01-09T12:17:53.880Z,55
2017-01-09T12:19:07.936Z,55
2017-01-09T12:20:21.472Z,50
2017-01-09T12:21:36.373Z,55
2017-01-09T12:22:51.360Z,55
2017-01-09T12:24:04.932Z,55
2017-01-09T12:25:18.516Z,55
2017-01-09T12:26:32.059Z,55
2017-01-09T12:27:46.448Z,55
2017-01-09T12:29:00.031Z,55
2017-01-09T12:30:14.942Z,60
2017-01-09T12:31:29.384Z,60
2017-01-09T12:32:43.390Z,60
2017-01-09T12:33:56.935Z,60
2017-01-09T12:35:10.499Z,60
2017-01-09T12:36:24.041Z,60
2017-01-09T12:37:37.547Z,60
2017-01-09T12:38:51.928Z,65
2017-01-09T12:40:06.079Z,60
2017-01-09T12:41:20.046Z,60
2017-01-09T12:42:33.519Z,60
2017-01-09T12:43:46.987Z,60
2017-01-09T12:45:00.454Z,55
2017-01-09T12:46:13.997Z,55
2017-01-09T12:47:27.456Z,55
2017-01-09T12:48:40.907Z,55
2017-01-09T12:49:54.399Z,55
2017-01-09T12:51:07.873Z,55
2017-01-09T12:52:21.827Z,55
2017-01-09T12:53:35.362Z,55
2017-01-09T12:55:27.488Z,55
2017-01-09T12:56:40.993Z,55
2017-01-09T12:57:54.392Z,55
2017-01-09T12:59:07.890Z,50
2017-01-09T13:00:21.403Z,50
2017-01-09T13:01:35.072Z,50
2017-01-09T13:02:48.518Z,50
2017-01-09T13:04:02.066Z,50
2017-01-09T13:05:15.492Z,50
2017-01-09T13:06:28.977Z,50
2017-01-09T13:07:44.165Z,50
2017-01-09T13:08:57.680Z,45
2017-01-09T13:10:11.162Z,45
2017-01-09T13:11:24.630Z,45
2017-01-09T13:12:38.199Z,45
2017-01-09T13:13:51.701Z,45
2017-01-09T13:15:05.184Z,45
2017-01-09T13:16:18.668Z,45
2017-01-09T13:17:32.230Z,45
2017-01-09T13:18:46.155Z,45
2017-01-09T13:20:00.255Z,45
2017-01-09T13:21:14.822Z,45
2017-01-09T13:22:28.309Z,40
2017-01-09T13:23:41.799Z,40
2017-01-09T13:24:55.291Z,40
2017-01-09T13:26:08.995Z,40
2017-01-09T13:27:22.555Z,40
2017-01-09T13:28:36.193Z,40
2017-01-09T13:29:49.908Z,35
2017-01-09T13:31:05.648Z,35
2017-01-09T13:32:19.322Z,35
2017-01-09T13:33:34.509Z,35
2017-01-09T13:34:48.175Z,35
2017-01-09T13:36:02.135Z,35
2017-01-09T13:37:16.010Z,35
2017-01-09T13:38:29.553Z,35
2017-01-09T13:39:42.975Z,35
2017-01-09T13:40:56.425Z,35
2017-01-09T13:42:09.920Z,35
2017-01-09T13:43:23.823Z,35
2017-01-09T13:44:37.353Z,35
2017-01-09T13:45:50.848Z,35
2017-01-09T13:47:04.347Z,30
2017-01-09T13:48:17.973Z,30
2017-01-09T13:49:31.633Z,30
2017-01-09T13:50:45.325Z,30
2017-01-09T13:51:58.948Z,30
2017-01-09T13:53:12.682Z,30
2017-01-09T13:54:26.150Z,30
2017-01-09T13:55:40.086Z,30
2017-01-09T13:56:53.554Z,30
2017-01-09T13:58:07.031Z,30
2017-01-09T13:59:20.513Z,30
2017-01-09T14:00:34.020Z,30
2017-01-09T14:01:48.459Z,30
2017-01-09T14:03:01.951Z,30
2017-01-09T14:04:15.860Z,30
2017-01-09T14:05:29.364Z,30
2017-01-09T14:06:42.816Z,30
2017-01-09T14:07:56.249Z,30
2017-01-09T14:09:09.995Z,25
2017-01-09T14:10:25.483Z,25
2017-01-09T14:13:47.616Z,25
2017-01-09T14:15:01.060Z,25
2017-01-09T14:16:15.783Z,25
2017-01-09T14:17:29.332Z,20
2017-01-09T14:18:42.767Z,20
2017-01-09T14:19:56.198Z,20
2017-01-09T14:21:09.696Z,20
2017-01-09T14:22:23.158Z,20
2017-01-09T14:23:36.672Z,20
2017-01-09T14:24:50.141Z,20
2017-01-09T14:26:03.614Z,20
2017-01-09T14:27:17.155Z,20
2017-01-09T14:28:30.983Z,15
2017-01-09T14:29:44.476Z,15
2017-01-09T14:30:57.936Z,15
2017-01-09T14:32:11.415Z,15
2017-01-09T14:33:24.902Z,15
2017-01-09T14:34:38.376Z,15
2017-01-09T14:35:51.823Z,15
2017-01-09T14:37:05.286Z,15
2017-01-09T14:38:18.817Z,15
2017-01-09T14:39:32.234Z,15
2017-01-09T14:40:45.686Z,15
2017-01-09T14:41:59.172Z,15
2017-01-09T14:43:12.795Z,10
2017-01-09T14:44:26.495Z,10
2017-01-09T14:45:40.006Z,10
2017-01-09T14:46:53.657Z,10
2017-01-09T14:48:07.213Z,10
2017-01-09T14:49:22.880Z,10
2017-01-09T14:50:36.572Z,10
2017-01-09T14:51:50.049Z,10
2017-01-09T14:53:06.616Z,10
2017-01-09T14:54:21.134Z,10
2017-01-09T14:55:34.693Z,10
2017-01-09T14:56:48.344Z,5
2017-01-09T14:58:03.403Z,5
2017-01-09T14:59:16.911Z,5
2017-01-09T15:00:30.933Z,5
2017-01-09T15:01:45.185Z,5
2017-01-09T15:02:59.140Z,5
2017-01-09T15:04:12.913Z,5
2017-01-09T15:05:26.489Z,5
2017-01-09T15:06:40.128Z,5
2017-01-09T15:07:53.675Z,5
2017-01-09T15:09:07.201Z,5
2017-01-09T15:10:20.850Z,5
2017-01-09T15:11:34.757Z,5
2017-01-09T15:12:48.317Z,5
2017-01-09T15:14:02.914Z,5
2017-01-09T15:15:16.495Z,0
2017-01-09T15:16:30.111Z,0
2017-01-09T15:17:43.669Z,0
2017-01-09T15:18:57.836Z,0
2017-01-09T15:20:13.215Z,0
2017-01-09T15:21:26.756Z,0
2017-01-09T15:22:40.790Z,0
2017-01-09T15:23:54.832Z,0
2017-01-09T15:25:09.773Z,0
2017-01-09T15:26:24.681Z,0
2017-01-09T15:27:38.680Z,0
2017-01-09T15:28:52.137Z,0
2017-01-09T15:30:05.796Z,0
2017-01-09T15:31:19.247Z,0
2017-01-09T15:32:32.681Z,0
2017-01-09T15:33:46.168Z,0
2017-01-09T15:34:59.673Z,0
2017-01-09T15:36:13.539Z,0
2017-01-09T15:37:27.017Z,0
2017-01-09T15:38:41.033Z,0
2017-01-09T15:39:54.720Z,0
2017-01-09T15:41:08.247Z,0
2017-01-09T15:42:21.682Z,0
2017-01-09T15:43:35.571Z,0
2017-01-09T15:44:49.027Z,0
2017-01-09T15:46:03.784Z,0
2017-01-09T15:47:17.255Z,0
2017-01-09T15:48:30.874Z,0
2017-01-09T15:49:44.390Z,0
2017-01-09T15:50:57.839Z,0
2017-01-09T15:52:12.343Z,0
2017-01-09T15:53:25.811Z,0
2017-01-09T15:54:39.300Z,0
2017-01-09T15:55:52.804Z,0
2017-01-09T15:57:06.559Z,0
2017-01-09T15:58:20.093Z,0
2017-01-09T15:59:33.708Z,0
2017-01-09T16:00:47.221Z,0
2017-01-09T16:02:00.762Z,0
2017-01-09T16:03:14.447Z,0
2017-01-09T16:04:28.396Z,0
2017-01-09T16:05:44.106Z,0
2017-01-09T16:06:58.916Z,0
2017-01-09T16:08:12.432Z,0
2017-01-09T16:09:34.108Z,0
2017-01-09T16:10:55.055Z,0
2017-01-09T16:12:18.800Z,0
2017-01-09T16:13:39.248Z,0
2017-01-09T16:15:01.613Z,0
2017-01-09T16:16:20.505Z,0
2017-01-09T16:17:42.073Z,0
2017-01-09T16:22:26.486Z,0
2017-01-09T16:23:40.053Z,0
2017-01-09T16:24:54.339Z,0
2017-01-09T16:26:08.297Z,0
2017-01-09T16:27:21.957Z,0
2017-01-09T16:28:36.297Z,0
2017-01-09T16:29:50.059Z,0
2017-01-09T16:31:03.925Z,0
2017-01-09T16:32:18.432Z,0
2017-01-09T16:33:32.885Z,0
2017-01-09T16:34:46.447Z,0
2017-01-09T16:36:00.142Z,0
2017-01-09T16:37:14.194Z,0
2017-01-09T16:38:28.205Z,0
2017-01-09T16:39:41.835Z,0
2017-01-09T16:40:55.438Z,0
2017-01-09T16:42:10.339Z,0
2017-01-09T16:43:23.933Z,0
2017-01-09T16:44:37.553Z,0
2017-01-09T16:45:51.169Z,0
2017-01-09T16:47:08.674Z,0
2017-01-09T16:48:22.283Z,0
2017-01-09T16:49:36.793Z,0
2017-01-09T16:50:50.416Z,0
2017-01-09T16:52:04.176Z,0
2017-01-09T16:53:17.775Z,0
2017-01-09T16:54:31.382Z,0
2017-01-09T16:55:45.085Z,0
2017-01-09T16:57:00.388Z,0
2017-01-09T16:58:14.057Z,0
2017-01-09T16:59:27.977Z,0
2017-01-09T17:00:41.529Z,0
2017-01-09T17:01:56.261Z,0
2017-01-09T17:03:10.408Z,0
2017-01-09T17:04:24.861Z,0
2017-01-09T17:05:38.502Z,0
2017-01-09T17:06:52.114Z,0
2017-01-09T17:08:06.107Z,0
2017-01-09T17:09:20.279Z,0
2017-01-09T17:10:34.027Z,0
2017-01-09T17:11:47.723Z,0
2017-01-09T17:13:01.486Z,0
2017-01-09T17:14:15.136Z,0
2017-01-09T17:15:29.948Z,0
2017-01-09T17:16:43.574Z,0
2017-01-09T17:17:57.498Z,0
2017-01-09T17:19:11.101Z,0
2017-01-09T17:20:24.875Z,0
2017-01-09T17:21:38.561Z,0
2017-01-09T17:22:52.169Z,0
2017-01-09T17:24:05.987Z,0
2017-01-09T17:25:21.753Z,0
2017-01-09T17:26:35.468Z,0
2017-01-09T17:27:49.897Z,0
2017-01-09T17:29:03.592Z,0
2017-01-09T17:30:18.145Z,0
2017-01-09T17:31:31.842Z,0
2017-01-09T17:32:45.497Z,0
2017-01-09T17:33:59.223Z,0
2017-01-09T17:35:12.799Z,0
2017-01-09T17:36:26.928Z,0
2017-01-09T17:37:41.032Z,0
2017-01-09T17:38:54.713Z,0
2017-01-09T17:40:08.592Z,0
2017-01-09T17:41:22.691Z,0
2017-01-09T17:42:36.421Z,0
2017-01-09T17:43:50.077Z,0
2017-01-09T17:45:04.992Z,0
2017-01-09T17:46:18.615Z,0
2017-01-09T17:47:32.272Z,0
2017-01-09T17:48:45.910Z,0
2017-01-09T17:50:00.189Z,0
2017-01-09T17:51:14.218Z,0
2017-01-09T17:52:28.312Z,0
2017-01-09T17:53:41.948Z,0
2017-01-09T17:54:57.466Z,0
2017-01-09T17:56:12.307Z,0
2017-01-09T17:57:27.409Z,0
2017-01-09T17:58:45.045Z,0
2017-01-09T18:00:02.167Z,0
2017-01-09T18:01:18.004Z,0
2017-01-09T18:02:34.036Z,0
2017-01-09T18:03:52.895Z,0
2017-01-09T18:05:07.471Z,0
2017-01-09T18:06:21.120Z,0
2017-01-09T18:07:35.222Z,0
2017-01-09T18:08:48.937Z,0
2017-01-09T18:10:02.818Z,0
2017-01-09T18:11:16.646Z,0
2017-01-09T18:12:32.298Z,0
2017-01-09T18:13:47.116Z,0
2017-01-09T18:15:02.632Z,0
2017-01-09T18:16:17.259Z,0
2017-01-09T18:17:30.934Z,0
2017-01-09T18:18:45.422Z,0
2017-01-09T18:20:02.293Z,0
2017-01-09T18:21:16.527Z,0
2017-01-09T18:22:30.096Z,0
2017-01-09T18:23:43.742Z,0
2017-01-09T18:24:57.391Z,0
2017-01-09T18:26:11.129Z,0
2017-01-09T18:27:24.743Z,0
2017-01-09T18:28:38.335Z,0
2017-01-09T18:29:52.522Z,0
2017-01-09T18:31:06.373Z,0
2017-01-09T18:32:20.125Z,0
2017-01-09T18:33:33.766Z,0
2017-01-09T18:34:47.651Z,0
2017-01-09T18:36:05.310Z,0
2017-01-09T18:37:18.935Z,0
2017-01-09T18:38:32.506Z,0
2017-01-09T18:39:49.201Z,0
2017-01-09T18:41:04.566Z,0
2017-01-09T18:42:20.791Z,0
2017-01-09T18:43:34.408Z,0
2017-01-09T18:44:48.114Z,0
2017-01-09T18:46:03.189Z,0
2017-01-09T18:47:17.223Z,0
2017-01-09T18:48:30.831Z,0
2017-01-09T18:49:44.511Z,0
2017-01-09T18:50:58.550Z,0
2017-01-09T18:52:12.765Z,0
2017-01-09T18:53:26.408Z,0
2017-01-09T18:54:40.650Z,0
2017-01-09T18:55:54.792Z,0
2017-01-09T18:57:09.272Z,0
2017-01-09T18:58:23.401Z,0
2017-01-09T18:59:37.864Z,0
2017-01-09T19:00:52.141Z,0
2017-01-09T19:02:06.082Z,0
2017-01-09T19:03:19.652Z,0
2017-01-09T19:04:33.291Z,0
2017-01-09T19:05:47.421Z,0
2017-01-09T19:07:01.191Z,0
2017-01-09T19:08:14.928Z,0
2017-01-09T19:09:28.634Z,0
2017-01-09T19:10:42.787Z,0
2017-01-09T19:11:57.196Z,0
2017-01-09T19:13:11.017Z,0
2017-01-09T19:14:24.689Z,0
2017-01-09T19:15:39.694Z,0
2017-01-09T19:16:54.207Z,0
2017-01-09T19:18:07.941Z,0
2017-01-09T19:19:21.715Z,0
2017-01-09T19:20:35.368Z,0
2017-01-09T19:21:49.294Z,0
2017-01-09T19:23:04.101Z,0
2017-01-09T19:24:17.914Z,0
2017-01-09T19:25:31.761Z,0
2017-01-09T19:26:45.442Z,0
2017-01-09T19:27:59.116Z,0
2017-01-09T19:29:12.894Z,0
2017-01-09T19:30:27.752Z,0
2017-01-09T19:31:41.635Z,0
2017-01-09T19:32:55.328Z,0
2017-01-09T19:34:09.060Z,0
2017-01-09T19:35:22.821Z,0
2017-01-09T19:36:36.705Z,0
2017-01-09T19:37:50.655Z,0
2017-01-09T19:39:05.741Z,0
2017-01-09T19:40:20.639Z,0
2017-01-09T19:41:34.410Z,0
2017-01-09T19:42:48.058Z,0
2017-01-09T19:44:02.181Z,0
2017-01-09T19:45:17.707Z,0
2017-01-09T19:46:31.809Z,0
2017-01-09T19:47:45.432Z,0
2017-01-09T19:48:59.132Z,0
2017-01-09T19:50:13.640Z,0
2017-01-09T19:51:28.179Z,0
2017-01-09T19:52:41.890Z,0
2017-01-09T19:53:55.729Z,0
2017-01-09T19:55:12.227Z,0
2017-01-09T19:56:26.162Z,0
2017-01-09T19:57:39.782Z,0
2017-01-09T19:58:55.628Z,0
2017-01-09T20:00:09.520Z,0
2017-01-09T20:01:23.163Z,0
2017-01-09T20:02:36.748Z,0
2017-01-09T20:03:52.928Z,0
2017-01-09T20:05:07.402Z,0
2017-01-09T20:06:21.059Z,0
2017-01-09T20:07:35.063Z,0
2017-01-09T20:08:49.010Z,0
2017-01-09T20:10:03.117Z,0
2017-01-09T20:11:16.789Z,0
2017-01-09T20:12:30.395Z,0
2017-01-09T20:13:45.193Z,0
2017-01-09T20:14:59.035Z,0
2017-01-09T20:16:15.533Z,0
2017-01-09T20:17:30.200Z,0
2017-01-09T20:18:47.129Z,0
2017-01-09T20:20:02.858Z,0
2017-01-09T20:21:18.248Z,0
2017-01-09T20:22:31.956Z,0
2017-01-09T20:23:45.647Z,0
2017-01-09T20:24:59.695Z,0
2017-01-09T20:26:15.288Z,0
2017-01-09T20:27:29.562Z,0
2017-01-09T20:28:43.260Z,0
2017-01-09T20:29:57.761Z,0
2017-01-09T20:31:11.482Z,0
2017-01-09T20:32:25.754Z,0
2017-01-09T20:33:39.992Z,0
2017-01-09T20:34:53.730Z,0
2017-01-09T20:36:07.697Z,0
2017-01-09T20:37:21.484Z,0
2017-01-09T20:38:35.153Z,0
2017-01-09T20:39:49.287Z,0
2017-01-09T20:41:02.927Z,0
2017-01-09T20:42:21.228Z,0
2017-01-09T20:43:37.327Z,0
2017-01-09T20:44:51.521Z,0
2017-01-09T20:46:05.780Z,0
2017-01-09T20:47:19.542Z,0
2017-01-09T20:48:33.886Z,0
2017-01-09T20:49:49.177Z,0
2017-01-09T20:51:03.215Z,0
2017-01-09T20:52:17.160Z,0
2017-01-09T20:53:30.797Z,0
2017-01-09T20:54:44.386Z,0
2017-01-09T20:55:58.234Z,0
2017-01-09T20:57:12.027Z,0
2017-01-09T20:58:25.768Z,0
2017-01-09T20:59:39.347Z,0
2017-01-09T21:00:52.974Z,0
2017-01-09T21:02:06.554Z,0
2017-01-09T21:03:20.308Z,0
2017-01-09T21:04:33.888Z,0
2017-01-09T21:05:47.526Z,0
2017-01-09T21:07:02.549Z,0
2017-01-09T21:08:16.470Z,0
2017-01-09T21:09:30.122Z,0
2017-01-09T21:10:43.769Z,0
2017-01-09T21:11:57.980Z,0
2017-01-09T21:13:11.962Z,0
2017-01-09T21:14:26.063Z,0
2017-01-09T21:15:41.882Z,0
2017-01-09T21:16:55.486Z,0
2017-01-09T21:18:09.184Z,0
2017-01-09T21:19:22.971Z,0
2017-01-09T21:20:36.597Z,0
2017-01-09T21:21:50.703Z,0
2017-01-09T21:23:04.441Z,0
2017-01-09T21:24:18.976Z,0
2017-01-09T21:25:32.686Z,0
2017-01-09T21:26:46.723Z,0
2017-01-09T21:28:00.650Z,0
2017-01-09T21:29:15.668Z,0
2017-01-09T21:30:30.163Z,0
2017-01-09T21:31:43.907Z,0
2017-01-09T21:32:57.613Z,0
2017-01-09T21:34:11.417Z,0
2017-01-09T21:35:30.387Z,0
2017-01-09T21:36:44.029Z,0
2017-01-09T21:37:57.642Z,0
2017-01-09T21:39:11.384Z,0
2017-01-09T21:40:25.099Z,0
2017-01-09T21:41:38.703Z,0
2017-01-09T21:42:52.334Z,0
2017-01-09T21:44:05.976Z,0
2017-01-09T21:45:20.276Z,0
2017-01-09T21:46:34.354Z,0
2017-01-09T21:47:47.988Z,0
2017-01-09T21:49:01.590Z,0
2017-01-09T21:50:15.584Z,0
2017-01-09T21:51:29.117Z,0
2017-01-09T21:52:43.122Z,0
2017-01-09T21:53:56.697Z,0
2017-01-09T21:55:10.316Z,0
2017-01-09T21:56:24.478Z,0
2017-01-09T21:57:38.047Z,0
2017-01-09T21:58:51.686Z,0
2017-01-09T22:00:05.390Z,0
2017-01-09T22:01:19.027Z,0
2017-01-09T22:02:33.166Z,0
2017-01-09T22:03:46.738Z,0
2017-01-09T22:05:00.329Z,0
2017-01-09T22:06:14.012Z,0
2017-01-09T22:07:27.649Z,0
2017-01-09T22:08:41.238Z,0
2017-01-09T22:09:54.875Z,0
2017-01-09T22:11:08.965Z,0
2017-01-09T22:12:22.730Z,0
2017-01-09T22:13:36.341Z,0
2017-01-09T22:14:50.026Z,0
2017-01-09T22:16:05.310Z,0
2017-01-09T22:17:18.879Z,0
2017-01-09T22:18:32.602Z,0
2017-01-09T22:19:46.268Z,0
2017-01-09T22:20:59.894Z,0
2017-01-09T22:22:13.568Z,0
2017-01-09T22:23:27.212Z,0
2017-01-09T22:24:41.097Z,0
2017-01-09T22:25:54.719Z,0
2017-01-09T22:27:08.397Z,0
2017-01-09T22:28:21.972Z,0
2017-01-09T22:29:35.692Z,0
2017-01-09T22:30:49.471Z,0
2017-01-09T22:32:06.595Z,0
2017-01-09T22:33:20.212Z,0
2017-01-09T22:34:33.823Z,0
2017-01-09T22:35:48.078Z,0
2017-01-09T22:37:01.796Z,0
2017-01-09T22:38:15.500Z,0
2017-01-09T22:39:29.544Z,0
2017-01-09T22:40:43.114Z,0
2017-01-09T22:41:56.702Z,0
2017-01-09T22:43:10.395Z,0
2017-01-09T22:44:24.412Z,0
2017-01-09T22:45:38.409Z,0
2017-01-09T22:46:52.023Z,0
2017-01-09T22:48:07.896Z,0
2017-01-09T22:49:21.523Z,0
2017-01-09T22:50:35.612Z,0
2017-01-09T22:51:49.241Z,0
2017-01-09T22:53:03.262Z,0
2017-01-09T22:54:17.461Z,0
2017-01-09T22:55:31.287Z,0
2017-01-09T22:56:44.871Z,0
2017-01-09T22:57:58.902Z,0
2017-01-09T22:59:12.610Z,0
2017-01-09T23:00:26.240Z,0
2017-01-09T23:01:39.833Z,0
2017-01-09T23:02:53.407Z,0
2017-01-09T23:04:07.287Z,0
2017-01-09T23:05:20.923Z,0
2017-01-09T23:06:34.567Z,0
2017-01-09T23:07:48.205Z,0
2017-01-09T23:09:01.862Z,0
2017-01-09T23:10:15.606Z,0
2017-01-09T23:11:29.285Z,0
2017-01-09T23:12:42.894Z,0
2017-01-09T23:13:56.463Z,0
2017-01-09T23:15:11.528Z,0
2017-01-09T23:16:25.193Z,0
2017-01-09T23:17:38.854Z,0
2017-01-09T23:18:52.421Z,0
2017-01-09T23:20:06.088Z,0
2017-01-09T23:21:19.800Z,0
2017-01-09T23:22:33.545Z,0
2017-01-09T23:23:47.142Z,0
2017-01-09T23:25:01.149Z,0
2017-01-09T23:26:14.820Z,0
2017-01-09T23:27:28.450Z,0
2017-01-09T23:28:42.077Z,0
2017-01-09T23:29:55.636Z,0
2017-01-09T23:31:09.741Z,0
2017-01-09T23:32:23.320Z,0
2017-01-09T23:33:36.923Z,0
2017-01-09T23:34:50.743Z,0
2017-01-09T23:36:04.566Z,0
2017-01-09T23:37:19.425Z,0
2017-01-09T23:38:33.205Z,0
2017-01-09T23:39:46.817Z,0
2017-01-09T23:41:00.423Z,0
2017-01-09T23:42:14.571Z,0
2017-01-09T23:43:41.347Z,0
2017-01-09T23:44:55.376Z,0
2017-01-09T23:46:08.999Z,0
2017-01-09T23:47:22.661Z,0
2017-01-09T23:48:38.542Z,0
2017-01-09T23:49:52.128Z,0